createdAt,value
2022-11-16T00:00:49.691Z,80.64
2022-11-16T00:02:52.794Z,80.65
2022-11-16T00:04:57.002Z,80.08
2022-11-16T00:07:02.624Z,80.79
2022-11-16T00:09:23.873Z,80.58
2022-11-16T00:11:26.757Z,80.90
2022-11-16T00:13:29.515Z,80.96
2022-11-16T00:15:32.257Z,80.80
2022-11-16T00:17:35.044Z,80.92
2022-11-16T00:19:37.839Z,80.94
2022-11-16T00:21:42.425Z,80.83
2022-11-16T00:23:45.219Z,80.54
2022-11-16T00:25:47.990Z,80.36
2022-11-16T00:27:51.427Z,80.98
2022-11-16T00:29:54.195Z,80.50
2022-11-16T00:31:57.098Z,80.94
2022-11-16T00:33:59.860Z,80.13
2022-11-16T00:36:05.067Z,80.87
2022-11-16T00:38:09.214Z,80.60
2022-11-16T00:40:13.494Z,81.22
2022-11-16T00:42:16.282Z,80.98
2022-11-16T00:44:19.381Z,80.93
2022-11-16T00:46:22.605Z,81.52
2022-11-16T00:48:28.196Z,81.40
2022-11-16T00:50:31.110Z,81.24
2022-11-16T00:52:34.853Z,81.14
2022-11-16T00:54:39.255Z,81.60
2022-11-16T00:56:42.355Z,81.59
2022-11-16T00:58:45.175Z,81.50
2022-11-16T01:00:48.255Z,81.85
2022-11-16T01:02:52.470Z,81.58
2022-11-16T01:04:55.220Z,81.47
2022-11-16T01:06:58.081Z,81.93
2022-11-16T01:09:01.306Z,81.99
2022-11-16T01:11:20.248Z,81.19
2022-11-16T01:13:23.021Z,81.78
2022-11-16T01:15:27.712Z,81.60
2022-11-16T01:17:30.533Z,81.13
2022-11-16T01:19:33.303Z,81.37
2022-11-16T01:21:36.413Z,81.09
2022-11-16T01:23:39.282Z,81.10
2022-11-16T01:25:42.357Z,81.31
2022-11-16T01:27:46.832Z,81.60
2022-11-16T01:29:56.303Z,81.30
2022-11-16T01:31:59.893Z,81.49
2022-11-16T01:34:03.058Z,82.01
2022-11-16T01:36:14.518Z,81.64
2022-11-16T01:38:18.294Z,81.94
2022-11-16T01:40:21.094Z,82.06
2022-11-16T01:42:27.132Z,81.69
2022-11-16T01:45:03.732Z,82.14
2022-11-16T01:47:10.878Z,81.50
2022-11-16T01:49:18.429Z,82.00
2022-11-16T01:51:22.682Z,81.94
2022-11-16T01:53:26.843Z,81.96
2022-11-16T01:55:34.810Z,81.59
2022-11-16T01:57:47.434Z,81.82
2022-11-16T02:00:12.910Z,82.14
2022-11-16T02:02:27.313Z,82.33
2022-11-16T02:04:30.615Z,81.80
2022-11-16T02:06:57.919Z,81.65
2022-11-16T02:09:38.215Z,81.91
2022-11-16T02:11:58.552Z,81.79
2022-11-16T02:14:12.551Z,81.91
2022-11-16T02:16:27.562Z,82.27
2022-11-16T02:18:39.236Z,82.37
2022-11-16T02:21:02.005Z,82.40
2022-11-16T02:23:35.246Z,82.48
2022-11-16T02:25:47.303Z,82.25
2022-11-16T02:28:10.599Z,82.46
2022-11-16T02:30:15.171Z,82.70
2022-11-16T02:32:26.231Z,82.05
2022-11-16T02:34:34.313Z,82.39
2022-11-16T02:36:41.504Z,82.42
2022-11-16T02:38:49.477Z,81.95
2022-11-16T02:40:57.876Z,82.36
2022-11-16T02:43:08.711Z,82.81
2022-11-16T02:45:18.304Z,82.27
2022-11-16T02:47:24.564Z,82.55
2022-11-16T02:49:30.540Z,82.86
2022-11-16T02:51:35.897Z,83.26
2022-11-16T02:53:43.142Z,83.55
2022-11-16T02:55:47.802Z,83.24
2022-11-16T02:57:56.563Z,82.70
2022-11-16T03:00:02.314Z,82.57
2022-11-16T03:02:22.431Z,82.66
2022-11-16T03:04:30.293Z,82.31
2022-11-16T03:06:36.061Z,82.87
2022-11-16T03:08:42.046Z,83.09
2022-11-16T03:11:09.641Z,82.91
2022-11-16T03:13:15.931Z,82.86
2022-11-16T03:15:19.372Z,83.24
2022-11-16T03:17:28.969Z,82.50
2022-11-16T03:19:37.064Z,82.17
2022-11-16T03:21:44.970Z,82.82
2022-11-16T03:23:48.883Z,82.74
2022-11-16T03:25:53.647Z,82.88
2022-11-16T03:28:02.732Z,82.88
2022-11-16T03:30:12.437Z,82.51
2022-11-16T03:32:24.857Z,83.26
2022-11-16T03:34:32.974Z,82.81
2022-11-16T03:36:38.651Z,82.48
2022-11-16T03:38:45.113Z,83.02
2022-11-16T03:40:51.674Z,81.94
2022-11-16T03:42:56.235Z,82.40
2022-11-16T03:45:01.290Z,82.73
2022-11-16T03:47:04.067Z,82.74
2022-11-16T03:49:08.411Z,83.08
2022-11-16T03:51:13.537Z,83.18
2022-11-16T03:53:16.938Z,83.01
2022-11-16T03:55:20.123Z,82.74
2022-11-16T03:57:23.192Z,82.61
2022-11-16T03:59:30.544Z,82.64
2022-11-16T04:01:34.001Z,82.94
2022-11-16T04:03:36.861Z,82.87
2022-11-16T04:05:58.635Z,82.67
2022-11-16T04:08:19.122Z,82.53
2022-11-16T04:10:39.520Z,83.05
2022-11-16T04:13:02.415Z,83.59
2022-11-16T04:15:28.079Z,83.07
2022-11-16T04:18:02.563Z,83.44
2022-11-16T04:20:23.660Z,84.14
2022-11-16T04:22:49.960Z,83.92
2022-11-16T04:24:57.024Z,83.02
2022-11-16T04:27:21.879Z,82.86
2022-11-16T04:29:25.693Z,83.59
2022-11-16T04:31:46.177Z,83.48
2022-11-16T04:34:08.253Z,84.36
2022-11-16T04:36:29.341Z,83.85
2022-11-16T04:38:33.830Z,84.21
2022-11-16T04:40:37.026Z,83.54
2022-11-16T04:42:38.942Z,83.29
2022-11-16T04:44:59.732Z,83.35
2022-11-16T04:47:07.839Z,83.54
2022-11-16T04:49:13.207Z,83.77
2022-11-16T04:51:15.987Z,84.16
2022-11-16T04:53:20.292Z,83.84
2022-11-16T04:55:30.219Z,83.66
2022-11-16T04:57:34.081Z,83.09
2022-11-16T04:59:37.027Z,83.56
2022-11-16T05:01:57.634Z,83.75
2022-11-16T05:04:00.686Z,83.15
2022-11-16T05:06:03.534Z,83.33
2022-11-16T05:08:06.483Z,83.14
2022-11-16T05:10:10.342Z,83.65
2022-11-16T05:12:18.959Z,83.46
2022-11-16T05:14:23.350Z,83.97
2022-11-16T05:16:26.967Z,84.00
2022-11-16T05:18:30.009Z,83.58
2022-11-16T05:20:50.849Z,83.78
2022-11-16T05:22:54.902Z,84.07
2022-11-16T05:24:58.742Z,84.39
2022-11-16T05:27:02.312Z,84.41
2022-11-16T05:29:06.759Z,84.11
2022-11-16T05:31:09.521Z,83.54
2022-11-16T05:33:15.195Z,83.67
2022-11-16T05:35:18.043Z,83.44
2022-11-16T05:37:21.841Z,83.61
2022-11-16T05:39:26.748Z,83.88
2022-11-16T05:41:30.249Z,84.17
2022-11-16T05:43:34.587Z,84.21
2022-11-16T05:45:55.691Z,83.94
2022-11-16T05:47:58.632Z,84.56
2022-11-16T05:50:02.544Z,84.01
2022-11-16T05:52:09.850Z,84.08
2022-11-16T05:54:16.584Z,83.70
2022-11-16T05:56:22.623Z,83.71
2022-11-16T05:58:26.143Z,84.23
2022-11-16T06:00:29.648Z,84.12
2022-11-16T06:02:34.774Z,84.00
2022-11-16T06:04:37.776Z,83.77
2022-11-16T06:06:41.096Z,83.87
2022-11-16T06:08:43.936Z,83.91
2022-11-16T06:10:50.730Z,84.14
2022-11-16T06:12:53.577Z,83.76
2022-11-16T06:14:56.459Z,83.67
2022-11-16T06:16:59.291Z,82.81
2022-11-16T06:19:03.570Z,82.66
2022-11-16T06:21:07.609Z,83.35
2022-11-16T06:23:10.427Z,82.70
2022-11-16T06:25:13.747Z,82.84
2022-11-16T06:27:19.382Z,82.51
2022-11-16T06:29:22.292Z,82.74
2022-11-16T06:31:26.950Z,82.67
2022-11-16T06:33:33.589Z,83.28
2022-11-16T06:35:40.819Z,82.37
2022-11-16T06:37:44.131Z,82.31
2022-11-16T06:39:46.982Z,82.13
2022-11-16T06:41:49.787Z,82.14
2022-11-16T06:43:52.675Z,81.87
2022-11-16T06:46:00.221Z,81.88
2022-11-16T06:48:03.070Z,82.39
2022-11-16T06:50:06.737Z,82.33
2022-11-16T06:52:11.522Z,82.73
2022-11-16T06:54:14.328Z,82.44
2022-11-16T06:56:17.815Z,82.66
2022-11-16T06:58:26.649Z,82.03
2022-11-16T07:00:29.422Z,81.85
2022-11-16T07:02:32.682Z,82.51
2022-11-16T07:04:36.480Z,82.19
2022-11-16T07:06:40.767Z,82.62
2022-11-16T07:08:46.068Z,81.87
2022-11-16T07:13:39.794Z,82.17
2022-11-16T07:15:44.850Z,81.90
2022-11-16T07:17:47.745Z,82.87
2022-11-16T07:19:50.583Z,82.22
2022-11-16T07:21:53.393Z,82.91
2022-11-16T07:23:57.805Z,82.52
2022-11-16T07:26:01.137Z,82.50
2022-11-16T07:28:12.060Z,82.26
2022-11-16T07:30:15.684Z,82.13
2022-11-16T07:32:30.114Z,82.05
2022-11-16T07:34:50.258Z,82.64
2022-11-16T07:36:53.531Z,81.82
2022-11-16T07:38:58.464Z,81.93
2022-11-16T07:41:02.264Z,82.66
2022-11-16T07:43:06.753Z,82.76
2022-11-16T07:45:30.186Z,82.73
2022-11-16T07:47:37.746Z,82.77
2022-11-16T07:49:42.565Z,83.45
2022-11-16T07:51:59.802Z,83.33
2022-11-16T07:54:22.699Z,83.43
2022-11-16T07:56:26.423Z,83.35
2022-11-16T07:58:31.655Z,83.91
2022-11-16T08:00:34.763Z,83.38
2022-11-16T08:02:47.330Z,82.98
2022-11-16T08:04:54.611Z,83.51
2022-11-16T08:07:01.400Z,82.99
2022-11-16T08:09:09.649Z,82.39
2022-11-16T08:11:15.037Z,82.52
2022-11-16T08:13:18.279Z,82.61
2022-11-16T08:15:21.050Z,82.43
2022-11-16T08:17:23.992Z,81.26
2022-11-16T08:19:27.620Z,81.52
2022-11-16T08:21:30.764Z,81.37
2022-11-16T08:23:34.897Z,81.20
2022-11-16T08:25:38.928Z,81.37
2022-11-16T08:27:43.495Z,81.93
2022-11-16T08:29:47.521Z,81.92
2022-11-16T08:31:50.396Z,82.33
2022-11-16T08:33:56.462Z,82.75
2022-11-16T08:36:06.187Z,82.58
2022-11-16T08:38:12.450Z,82.86
2022-11-16T08:40:15.970Z,82.85
2022-11-16T08:42:19.569Z,82.41
2022-11-16T08:44:26.003Z,81.98
2022-11-16T08:46:31.309Z,82.04
2022-11-16T08:48:44.537Z,81.99
2022-11-16T08:51:15.390Z,81.72
2022-11-16T08:53:10.668Z,81.67
2022-11-16T08:55:13.925Z,81.23
2022-11-16T08:57:17.456Z,80.86
2022-11-16T08:59:23.202Z,80.55
2022-11-16T09:01:31.354Z,80.75
2022-11-16T09:03:34.264Z,80.83
2022-11-16T09:05:37.073Z,80.62
2022-11-16T09:07:40.698Z,81.13
2022-11-16T09:09:43.567Z,81.05
2022-11-16T09:11:46.388Z,80.99
2022-11-16T09:13:50.980Z,81.00
2022-11-16T09:15:57.116Z,80.74
2022-11-16T09:18:01.260Z,80.67
2022-11-16T09:20:04.828Z,80.88
2022-11-16T09:22:07.608Z,80.32
2022-11-16T09:27:22.370Z,79.85
2022-11-16T09:29:27.501Z,79.80
2022-11-16T09:31:34.596Z,79.61
2022-11-16T09:33:38.888Z,79.24
2022-11-16T09:35:42.022Z,79.35
2022-11-16T09:37:44.932Z,79.59
2022-11-16T09:39:47.800Z,79.20
2022-11-16T09:42:08.365Z,79.11
2022-11-16T09:44:21.126Z,78.73
2022-11-16T09:46:28.000Z,78.57
2022-11-16T09:48:36.609Z,78.22
2022-11-16T09:50:51.815Z,78.14
2022-11-16T09:52:56.482Z,78.41
2022-11-16T09:55:03.463Z,78.33
2022-11-16T09:57:12.748Z,78.52
2022-11-16T09:59:23.835Z,78.40
2022-11-16T10:01:30.309Z,78.86
2022-11-16T10:03:41.276Z,78.80
2022-11-16T10:05:58.133Z,78.11
2022-11-16T10:08:10.596Z,76.51
2022-11-16T10:10:14.718Z,77.37
2022-11-16T10:12:23.075Z,77.99
2022-11-16T10:14:51.948Z,76.92
2022-11-16T10:17:03.218Z,76.73
2022-11-16T10:19:15.606Z,77.14
2022-11-16T10:21:29.113Z,77.26
2022-11-16T10:23:42.943Z,77.67
2022-11-16T10:25:47.347Z,77.02
2022-11-16T10:28:16.466Z,77.33
2022-11-16T10:30:21.330Z,76.29
2022-11-16T10:32:28.167Z,76.25
2022-11-16T10:34:39.173Z,76.97
2022-11-16T10:36:43.501Z,76.47
2022-11-16T10:38:46.468Z,77.20
2022-11-16T10:40:55.713Z,75.67
2022-11-16T10:43:06.749Z,75.22
2022-11-16T10:45:20.515Z,75.33
2022-11-16T10:47:30.804Z,74.78
2022-11-16T10:49:41.846Z,74.35
2022-11-16T10:51:46.004Z,74.10
2022-11-16T10:53:49.487Z,74.41
2022-11-16T10:56:07.389Z,73.71
2022-11-16T10:58:10.243Z,73.72
2022-11-16T11:00:34.943Z,73.32
2022-11-16T11:02:39.134Z,73.49
2022-11-16T11:04:41.945Z,73.69
2022-11-16T11:06:46.903Z,74.19
2022-11-16T11:08:50.249Z,74.67
2022-11-16T11:11:01.683Z,74.06
2022-11-16T11:13:26.107Z,73.51
2022-11-16T11:15:28.936Z,73.33
2022-11-16T11:17:33.657Z,73.60
2022-11-16T11:19:36.335Z,73.53
2022-11-16T11:21:39.185Z,73.47
2022-11-16T11:23:46.326Z,73.33
2022-11-16T11:25:55.055Z,73.92
2022-11-16T11:28:06.347Z,73.86
2022-11-16T11:30:21.017Z,73.18
2022-11-16T11:32:27.207Z,71.81
2022-11-16T11:34:33.057Z,72.44
2022-11-16T11:36:40.503Z,73.30
2022-11-16T11:38:58.987Z,71.97
2022-11-16T11:41:05.078Z,72.32
2022-11-16T11:43:23.239Z,73.08
2022-11-16T11:45:37.065Z,73.42
2022-11-16T11:47:57.948Z,73.25
2022-11-16T11:50:07.529Z,72.92
2022-11-16T11:52:20.560Z,72.02
2022-11-16T11:54:29.209Z,70.53
2022-11-16T11:56:34.123Z,72.08
2022-11-16T11:58:40.555Z,71.45
2022-11-16T12:00:58.867Z,71.50
2022-11-16T12:03:31.436Z,72.21
2022-11-16T12:06:02.771Z,70.61
2022-11-16T12:08:22.515Z,71.89
2022-11-16T12:10:36.741Z,72.06
2022-11-16T12:12:51.960Z,70.25
2022-11-16T12:15:05.626Z,70.88
2022-11-16T12:17:15.003Z,70.69
2022-11-16T12:19:42.543Z,70.11
2022-11-16T12:22:02.040Z,70.28
2022-11-16T12:24:28.155Z,70.28
2022-11-16T12:26:46.011Z,70.28
2022-11-16T12:28:59.822Z,70.38
2022-11-16T12:31:20.570Z,70.58
2022-11-16T12:33:33.164Z,70.70
2022-11-16T12:35:52.844Z,69.48
2022-11-16T12:38:04.477Z,69.60
2022-11-16T12:40:24.235Z,68.31
2022-11-16T12:42:40.341Z,68.69
2022-11-16T12:45:05.883Z,68.09
2022-11-16T12:47:22.714Z,67.33
2022-11-16T12:49:43.313Z,68.95
2022-11-16T12:51:58.728Z,67.79
2022-11-16T12:54:29.298Z,68.64
2022-11-16T12:56:48.688Z,68.66
2022-11-16T12:59:17.942Z,68.77
2022-11-16T13:01:33.560Z,68.76
2022-11-16T13:03:47.731Z,69.60
2022-11-16T13:05:58.896Z,70.03
2022-11-16T13:08:06.436Z,70.27
2022-11-16T13:10:16.945Z,70.39
2022-11-16T13:12:24.283Z,70.75
2022-11-16T13:14:34.237Z,70.24
2022-11-16T13:16:39.835Z,70.20
2022-11-16T13:18:44.081Z,70.53
2022-11-16T13:20:52.276Z,71.14
2022-11-16T13:23:03.582Z,70.14
2022-11-16T13:25:17.120Z,69.78
2022-11-16T13:27:32.252Z,70.27
2022-11-16T13:29:41.809Z,70.43
2022-11-16T13:31:53.785Z,71.21
2022-11-16T13:34:01.623Z,70.00
2022-11-16T13:36:39.754Z,70.34
2022-11-16T13:38:52.059Z,70.13
2022-11-16T13:40:54.856Z,69.85
2022-11-16T13:43:17.604Z,69.68
2022-11-16T13:45:24.093Z,69.45
2022-11-16T13:47:30.336Z,69.56
2022-11-16T13:49:36.649Z,68.33
2022-11-16T13:51:39.505Z,68.50
2022-11-16T13:54:44.534Z,67.84
2022-11-16T13:56:13.779Z,67.13
2022-11-16T13:58:22.219Z,66.11
2022-11-16T14:00:30.523Z,66.35
2022-11-16T14:02:36.199Z,65.88
2022-11-16T14:04:43.348Z,65.46
2022-11-16T14:07:00.743Z,64.80
2022-11-16T14:09:03.590Z,66.28
2022-11-16T14:11:34.153Z,65.20
2022-11-16T14:13:38.910Z,66.06
2022-11-16T14:15:42.891Z,65.89
2022-11-16T14:17:57.975Z,65.93
2022-11-16T14:20:00.824Z,65.66
2022-11-16T14:22:11.359Z,65.94
2022-11-16T14:24:26.335Z,65.29
2022-11-16T14:26:44.193Z,66.25
2022-11-16T14:29:03.848Z,66.32
2022-11-16T14:31:16.921Z,65.94
2022-11-16T14:33:30.750Z,66.40
2022-11-16T14:35:36.490Z,66.64
2022-11-16T14:37:42.687Z,66.88
2022-11-16T14:39:46.019Z,67.47
2022-11-16T14:41:49.007Z,67.36
2022-11-16T14:43:54.765Z,66.93
2022-11-16T14:46:01.320Z,66.58
2022-11-16T14:48:14.123Z,66.02
2022-11-16T14:50:22.331Z,66.22
2022-11-16T14:52:32.827Z,66.30
2022-11-16T14:54:39.877Z,66.04
2022-11-16T14:56:57.194Z,67.33
2022-11-16T14:59:02.290Z,67.23
2022-11-16T15:01:07.912Z,67.10
2022-11-16T15:03:12.933Z,67.04
2022-11-16T15:05:17.776Z,66.84
2022-11-16T15:07:23.416Z,67.21
2022-11-16T15:09:29.862Z,67.28
2022-11-16T15:11:52.431Z,67.87
2022-11-16T15:13:55.785Z,66.84
2022-11-16T15:16:15.792Z,67.58
2022-11-16T15:18:23.117Z,67.16
2022-11-16T15:20:28.339Z,67.36
2022-11-16T15:22:40.057Z,67.37
2022-11-16T15:24:42.842Z,67.60
2022-11-16T15:26:45.624Z,68.47
2022-11-16T15:28:50.270Z,68.06
2022-11-16T15:30:55.464Z,67.88
2022-11-16T15:32:58.483Z,68.85
2022-11-16T15:35:05.537Z,68.99
2022-11-16T15:37:12.298Z,69.20
2022-11-16T15:39:18.578Z,69.26
2022-11-16T15:41:22.859Z,69.10
2022-11-16T15:43:29.632Z,69.51
2022-11-16T15:45:33.212Z,69.71
2022-11-16T15:47:37.508Z,69.98
2022-11-16T15:49:42.259Z,70.06
2022-11-16T15:51:46.198Z,70.45
2022-11-16T15:53:50.912Z,70.67
2022-11-16T15:55:53.794Z,70.81
2022-11-16T15:58:07.333Z,70.97
2022-11-16T16:00:23.010Z,71.18
2022-11-16T16:02:28.367Z,71.17
2022-11-16T16:04:31.389Z,71.33
2022-11-16T16:06:46.949Z,71.29
2022-11-16T16:09:05.045Z,71.75
2022-11-16T16:11:12.282Z,72.08
2022-11-16T16:13:26.591Z,72.11
2022-11-16T16:15:33.737Z,72.49
2022-11-16T16:17:36.615Z,72.94
2022-11-16T16:19:42.433Z,72.94
2022-11-16T16:21:47.516Z,73.00
2022-11-16T16:23:52.109Z,73.74
2022-11-16T16:25:54.913Z,73.27
2022-11-16T16:27:58.226Z,73.49
2022-11-16T16:30:06.029Z,73.63
2022-11-16T16:32:14.388Z,73.57
2022-11-16T16:34:17.830Z,73.33
2022-11-16T16:36:20.615Z,73.41
2022-11-16T16:38:24.819Z,73.50
2022-11-16T16:40:27.961Z,73.32
2022-11-16T16:42:30.765Z,73.86
2022-11-16T16:44:33.517Z,74.17
2022-11-16T16:46:36.288Z,73.96
2022-11-16T16:48:44.359Z,73.91
2022-11-16T16:50:47.604Z,74.08
2022-11-16T16:52:50.415Z,74.47
2022-11-16T16:54:54.592Z,74.36
2022-11-16T16:56:58.301Z,74.74
2022-11-16T16:59:01.047Z,74.45
2022-11-16T17:01:05.008Z,74.49
2022-11-16T17:03:08.255Z,74.25
2022-11-16T17:05:11.075Z,74.29
2022-11-16T17:07:14.040Z,74.22
2022-11-16T17:09:16.971Z,74.35
2022-11-16T17:11:21.213Z,74.13
2022-11-16T17:13:24.079Z,74.58
2022-11-16T17:15:26.797Z,74.78
2022-11-16T17:17:29.583Z,74.91
2022-11-16T17:19:33.069Z,74.80
2022-11-16T17:21:35.924Z,74.75
2022-11-16T17:23:38.758Z,74.48
2022-11-16T17:25:41.562Z,74.92
2022-11-16T17:27:45.663Z,74.49
2022-11-16T17:29:48.459Z,74.79
2022-11-16T17:31:51.593Z,74.91
2022-11-16T17:33:54.628Z,74.98
2022-11-16T17:35:58.786Z,74.52
2022-11-16T17:38:01.548Z,74.27
2022-11-16T17:40:04.552Z,74.33
2022-11-16T17:42:07.409Z,73.92
2022-11-16T17:44:16.017Z,73.46
2022-11-16T17:46:23.385Z,73.99
2022-11-16T17:48:26.006Z,73.97
2022-11-16T17:50:28.769Z,74.40
2022-11-16T17:52:31.539Z,73.88
2022-11-16T17:54:34.307Z,73.59
2022-11-16T17:56:37.584Z,73.67
2022-11-16T17:58:40.475Z,73.43
2022-11-16T18:00:44.645Z,73.62
2022-11-16T18:02:47.564Z,73.71
2022-11-16T18:04:51.381Z,73.36
2022-11-16T18:06:55.189Z,73.69
2022-11-16T18:08:58.172Z,73.44
2022-11-16T18:11:05.345Z,73.58
2022-11-16T18:13:08.537Z,73.55
2022-11-16T18:15:27.976Z,73.07
2022-11-16T18:17:34.744Z,73.40
2022-11-16T18:19:37.553Z,73.41
2022-11-16T18:21:41.571Z,72.80
2022-11-16T18:23:44.611Z,72.55
2022-11-16T18:25:47.374Z,72.74
2022-11-16T18:27:52.256Z,72.65
2022-11-16T18:29:55.015Z,71.97
2022-11-16T18:31:57.874Z,71.86
2022-11-16T18:34:03.046Z,72.11
2022-11-16T18:36:08.012Z,71.52
2022-11-16T18:38:12.944Z,71.89
2022-11-16T18:40:15.882Z,71.24
2022-11-16T18:42:18.655Z,70.96
2022-11-16T18:44:21.531Z,71.47
2022-11-16T18:46:26.340Z,71.27
2022-11-16T18:48:29.073Z,71.14
2022-11-16T18:50:33.218Z,71.43
2022-11-16T18:52:36.017Z,71.43
2022-11-16T18:54:38.992Z,71.38
2022-11-16T18:56:41.881Z,71.25
2022-11-16T18:58:53.195Z,70.90
2022-11-16T19:01:01.379Z,70.96
2022-11-16T19:03:09.910Z,71.00
2022-11-16T19:05:13.965Z,70.99
2022-11-16T19:07:18.154Z,70.95
2022-11-16T19:09:21.000Z,70.92
2022-11-16T19:11:24.829Z,70.45
2022-11-16T19:13:28.362Z,70.69
2022-11-16T19:15:31.206Z,70.83
2022-11-16T19:17:59.604Z,70.18
2022-11-16T19:20:07.306Z,70.28
2022-11-16T19:22:10.141Z,70.40
2022-11-16T19:24:14.312Z,70.42
2022-11-16T19:26:18.602Z,70.80
2022-11-16T19:28:21.353Z,70.70
2022-11-16T19:30:24.133Z,71.08
2022-11-16T19:32:27.209Z,71.16
2022-11-16T19:34:33.332Z,71.42
2022-11-16T19:36:37.462Z,71.26
2022-11-16T19:38:40.892Z,71.31
2022-11-16T19:40:44.998Z,71.24
2022-11-16T19:42:47.818Z,71.06
2022-11-16T19:44:50.651Z,71.07
2022-11-16T19:46:54.410Z,70.64
2022-11-16T19:48:58.111Z,70.91
2022-11-16T19:51:08.171Z,70.50
2022-11-16T19:53:11.022Z,70.81
2022-11-16T19:55:13.847Z,70.71
2022-11-16T19:57:20.496Z,70.65
2022-11-16T19:59:23.319Z,70.67
2022-11-16T20:01:29.242Z,71.04
2022-11-16T20:03:32.946Z,70.65
2022-11-16T20:05:35.884Z,71.48
2022-11-16T20:07:38.894Z,71.17
2022-11-16T20:09:41.752Z,71.59
2022-11-16T20:11:44.550Z,71.61
2022-11-16T20:13:50.161Z,70.70
2022-11-16T20:15:52.988Z,71.34
2022-11-16T20:17:55.803Z,71.45
2022-11-16T20:19:58.591Z,70.96
2022-11-16T20:22:01.402Z,71.14
2022-11-16T20:24:07.465Z,71.55
2022-11-16T20:26:11.988Z,72.08
2022-11-16T20:28:14.820Z,71.58
2022-11-16T20:30:19.391Z,71.50
2022-11-16T20:32:22.268Z,72.33
2022-11-16T20:34:25.108Z,72.14
2022-11-16T20:36:30.130Z,71.59
2022-11-16T20:38:33.647Z,71.64
2022-11-16T20:40:36.413Z,71.92
2022-11-16T20:42:39.223Z,72.33
2022-11-16T20:44:42.016Z,71.78
2022-11-16T20:46:46.401Z,72.13
2022-11-16T20:48:49.711Z,72.16
2022-11-16T20:50:53.661Z,72.11
2022-11-16T20:52:57.537Z,72.71
2022-11-16T20:55:00.341Z,72.58
2022-11-16T20:57:03.129Z,72.55
2022-11-16T20:59:25.076Z,72.51
2022-11-16T21:01:31.477Z,72.35
2022-11-16T21:03:36.327Z,72.01
2022-11-16T21:05:42.214Z,71.85
2022-11-16T21:07:45.015Z,72.55
2022-11-16T21:10:05.404Z,71.80
2022-11-16T21:12:27.117Z,72.22
2022-11-16T21:14:30.042Z,72.67
2022-11-16T21:16:33.435Z,72.02
2022-11-16T21:18:38.316Z,72.53
2022-11-16T21:20:40.969Z,72.06
2022-11-16T21:22:43.850Z,72.68
2022-11-16T21:24:46.655Z,72.35
2022-11-16T21:26:49.460Z,72.11
2022-11-16T21:28:52.741Z,72.22
2022-11-16T21:30:57.283Z,72.65
2022-11-16T21:33:00.180Z,72.18
2022-11-16T21:35:04.652Z,72.61
2022-11-16T21:37:07.414Z,72.59
2022-11-16T21:39:10.302Z,73.16
2022-11-16T21:41:15.049Z,72.51
2022-11-16T21:43:17.906Z,73.08
2022-11-16T21:45:20.750Z,73.76
2022-11-16T21:47:23.532Z,73.36
2022-11-16T21:49:26.270Z,73.48
2022-11-16T21:51:30.738Z,73.36
2022-11-16T21:53:34.565Z,74.35
2022-11-16T21:55:37.629Z,74.18
2022-11-16T21:57:40.364Z,73.64
2022-11-16T21:59:43.554Z,73.83
2022-11-16T22:02:01.248Z,74.14
2022-11-16T22:04:21.881Z,74.74
2022-11-16T22:06:42.156Z,74.91
2022-11-16T22:08:47.356Z,74.43
2022-11-16T22:10:51.269Z,74.53
2022-11-16T22:12:54.306Z,73.77
2022-11-16T22:14:57.604Z,74.39
2022-11-16T22:17:00.334Z,73.58
2022-11-16T22:19:03.174Z,73.26
2022-11-16T22:21:06.584Z,73.23
2022-11-16T22:23:09.343Z,73.82
2022-11-16T22:25:13.960Z,73.82
2022-11-16T22:27:17.915Z,73.38
2022-11-16T22:29:20.687Z,73.03
2022-11-16T22:31:23.577Z,73.45
2022-11-16T22:33:26.633Z,72.74
2022-11-16T22:35:29.460Z,73.45
2022-11-16T22:37:32.242Z,72.71
2022-11-16T22:39:36.488Z,72.20
2022-11-16T22:41:40.710Z,73.02
2022-11-16T22:43:43.597Z,72.72
2022-11-16T22:45:46.386Z,72.31
2022-11-16T22:47:53.602Z,72.72
2022-11-16T22:49:57.579Z,73.08
2022-11-16T22:52:00.406Z,72.42
2022-11-16T22:54:05.211Z,72.63
2022-11-16T22:56:08.790Z,73.41
2022-11-16T22:58:12.916Z,72.36
2022-11-16T23:00:16.769Z,72.30
2022-11-16T23:02:19.614Z,72.86
2022-11-16T23:04:22.394Z,72.38
2022-11-16T23:06:25.436Z,72.22
2022-11-16T23:08:28.819Z,72.33
2022-11-16T23:10:51.559Z,71.13
2022-11-16T23:13:12.273Z,71.60
2022-11-16T23:15:48.332Z,71.68
2022-11-16T23:17:51.083Z,71.59
2022-11-16T23:20:17.324Z,71.65
2022-11-16T23:22:40.149Z,71.77
2022-11-16T23:25:03.177Z,71.72
2022-11-16T23:27:31.709Z,71.63
2022-11-16T23:29:34.520Z,71.55
2022-11-16T23:31:39.059Z,71.75
2022-11-16T23:33:47.820Z,71.44
2022-11-16T23:35:50.653Z,71.80
2022-11-16T23:37:55.401Z,71.78
2022-11-16T23:39:58.148Z,71.54
2022-11-16T23:42:18.741Z,71.97
2022-11-16T23:44:21.517Z,70.74
2022-11-16T23:46:24.350Z,71.36
2022-11-16T23:48:28.467Z,72.18
2022-11-16T23:50:31.231Z,73.13
2022-11-16T23:52:33.994Z,73.16
2022-11-16T23:54:36.855Z,73.51
2022-11-16T23:56:39.614Z,73.55
2022-11-16T23:58:42.415Z,72.28
